sensor_id;sensor_type;location;lat;lon;timestamp;P1;durP1;ratioP1;P2;durP2;ratioP2
28760;SDS011;15917;50.014;8.352;2023-12-28T00:01:55;22.88;;;9.82;;
28760;SDS011;15917;50.014;8.352;2023-12-28T00:04:20;25.95;;;9.20;;
28760;SDS011;15917;50.014;8.352;2023-12-28T00:06:46;14.13;;;7.15;;
28760;SDS011;15917;50.014;8.352;2023-12-28T00:09:12;12.95;;;6.45;;
28760;SDS011;15917;50.014;8.352;2023-12-28T00:11:38;18.73;;;6.95;;
28760;SDS011;15917;50.014;8.352;2023-12-28T00:14:04;17.98;;;7.05;;
28760;SDS011;15917;50.014;8.352;2023-12-28T00:16:30;21.65;;;8.07;;
28760;SDS011;15917;50.014;8.352;2023-12-28T00:18:57;18.55;;;7.55;;
28760;SDS011;15917;50.014;8.352;2023-12-28T00:21:23;18.85;;;8.45;;
28760;SDS011;15917;50.014;8.352;2023-12-28T00:23:49;22.95;;;8.25;;
28760;SDS011;15917;50.014;8.352;2023-12-28T00:26:14;20.75;;;7.70;;
28760;SDS011;15917;50.014;8.352;2023-12-28T00:28:47;23.05;;;7.43;;
28760;SDS011;15917;50.014;8.352;2023-12-28T00:31:13;22.33;;;7.43;;
28760;SDS011;15917;50.014;8.352;2023-12-28T00:33:38;20.42;;;8.00;;
28760;SDS011;15917;50.014;8.352;2023-12-28T00:36:04;17.60;;;6.95;;
28760;SDS011;15917;50.014;8.352;2023-12-28T00:38:30;17.63;;;7.43;;
28760;SDS011;15917;50.014;8.352;2023-12-28T00:40:55;13.32;;;6.68;;
28760;SDS011;15917;50.014;8.352;2023-12-28T00:43:22;13.02;;;6.43;;
28760;SDS011;15917;50.014;8.352;2023-12-28T00:45:47;12.45;;;7.28;;
28760;SDS011;15917;50.014;8.352;2023-12-28T00:48:13;17.00;;;7.25;;
28760;SDS011;15917;50.014;8.352;2023-12-28T00:50:39;15.35;;;6.78;;
28760;SDS011;15917;50.014;8.352;2023-12-28T00:53:05;18.27;;;7.72;;
28760;SDS011;15917;50.014;8.352;2023-12-28T00:55:30;18.83;;;6.97;;
28760;SDS011;15917;50.014;8.352;2023-12-28T00:57:56;13.15;;;6.60;;
28760;SDS011;15917;50.014;8.352;2023-12-28T01:00:22;19.23;;;7.95;;
28760;SDS011;15917;50.014;8.352;2023-12-28T01:02:48;12.18;;;6.32;;
28760;SDS011;15917;50.014;8.352;2023-12-28T01:05:14;14.93;;;6.05;;
28760;SDS011;15917;50.014;8.352;2023-12-28T01:07:40;15.15;;;6.63;;
28760;SDS011;15917;50.014;8.352;2023-12-28T01:10:06;16.75;;;5.88;;
28760;SDS011;15917;50.014;8.352;2023-12-28T01:12:32;16.55;;;6.63;;
28760;SDS011;15917;50.014;8.352;2023-12-28T01:14:58;15.68;;;6.05;;
28760;SDS011;15917;50.014;8.352;2023-12-28T01:17:24;13.68;;;6.03;;
28760;SDS011;15917;50.014;8.352;2023-12-28T01:19:49;15.23;;;6.57;;
28760;SDS011;15917;50.014;8.352;2023-12-28T01:22:15;14.23;;;6.00;;
28760;SDS011;15917;50.014;8.352;2023-12-28T01:24:41;15.93;;;6.53;;
28760;SDS011;15917;50.014;8.352;2023-12-28T01:27:06;12.70;;;6.28;;
28760;SDS011;15917;50.014;8.352;2023-12-28T01:29:32;13.02;;;6.22;;
28760;SDS011;15917;50.014;8.352;2023-12-28T01:31:59;13.70;;;6.10;;
28760;SDS011;15917;50.014;8.352;2023-12-28T01:34:24;16.70;;;6.18;;
28760;SDS011;15917;50.014;8.352;2023-12-28T01:36:50;16.25;;;5.53;;
28760;SDS011;15917;50.014;8.352;2023-12-28T01:39:15;11.07;;;5.32;;
28760;SDS011;15917;50.014;8.352;2023-12-28T01:41:43;11.05;;;5.53;;
28760;SDS011;15917;50.014;8.352;2023-12-28T01:44:09;13.68;;;5.97;;
28760;SDS011;15917;50.014;8.352;2023-12-28T01:46:35;12.00;;;5.78;;
28760;SDS011;15917;50.014;8.352;2023-12-28T01:49:00;13.43;;;6.28;;
28760;SDS011;15917;50.014;8.352;2023-12-28T01:51:26;12.43;;;5.15;;
28760;SDS011;15917;50.014;8.352;2023-12-28T01:53:52;17.42;;;5.40;;
28760;SDS011;15917;50.014;8.352;2023-12-28T01:56:19;11.02;;;5.47;;
28760;SDS011;15917;50.014;8.352;2023-12-28T01:58:46;11.70;;;5.50;;
28760;SDS011;15917;50.014;8.352;2023-12-28T02:01:13;19.27;;;6.38;;
28760;SDS011;15917;50.014;8.352;2023-12-28T02:03:38;11.32;;;6.05;;
28760;SDS011;15917;50.014;8.352;2023-12-28T02:06:04;13.68;;;5.43;;
28760;SDS011;15917;50.014;8.352;2023-12-28T02:08:32;11.50;;;5.82;;
28760;SDS011;15917;50.014;8.352;2023-12-28T02:10:58;18.10;;;5.80;;
28760;SDS011;15917;50.014;8.352;2023-12-28T02:13:24;18.67;;;6.55;;
28760;SDS011;15917;50.014;8.352;2023-12-28T02:15:51;12.30;;;6.07;;
28760;SDS011;15917;50.014;8.352;2023-12-28T02:18:34;13.70;;;5.82;;
28760;SDS011;15917;50.014;8.352;2023-12-28T02:21:04;15.77;;;6.28;;
28760;SDS011;15917;50.014;8.352;2023-12-28T02:23:32;14.80;;;5.95;;
28760;SDS011;15917;50.014;8.352;2023-12-28T02:25:58;11.93;;;6.57;;
28760;SDS011;15917;50.014;8.352;2023-12-28T02:28:24;18.35;;;6.55;;
28760;SDS011;15917;50.014;8.352;2023-12-28T02:30:50;17.00;;;6.70;;
28760;SDS011;15917;50.014;8.352;2023-12-28T02:36:06;16.13;;;7.15;;
28760;SDS011;15917;50.014;8.352;2023-12-28T02:38:32;14.57;;;6.03;;
28760;SDS011;15917;50.014;8.352;2023-12-28T02:41:00;13.25;;;5.63;;
28760;SDS011;15917;50.014;8.352;2023-12-28T02:43:27;9.63;;;5.45;;
28760;SDS011;15917;50.014;8.352;2023-12-28T02:45:53;11.38;;;5.88;;
28760;SDS011;15917;50.014;8.352;2023-12-28T02:48:19;11.52;;;5.57;;
28760;SDS011;15917;50.014;8.352;2023-12-28T02:50:44;13.57;;;6.90;;
28760;SDS011;15917;50.014;8.352;2023-12-28T02:53:11;25.75;;;6.20;;
28760;SDS011;15917;50.014;8.352;2023-12-28T02:55:37;12.45;;;6.10;;
28760;SDS011;15917;50.014;8.352;2023-12-28T02:58:03;10.77;;;5.50;;
28760;SDS011;15917;50.014;8.352;2023-12-28T03:00:29;13.00;;;5.95;;
28760;SDS011;15917;50.014;8.352;2023-12-28T03:02:55;12.68;;;5.13;;
28760;SDS011;15917;50.014;8.352;2023-12-28T03:05:20;11.23;;;5.72;;
28760;SDS011;15917;50.014;8.352;2023-12-28T03:07:46;13.25;;;6.05;;
28760;SDS011;15917;50.014;8.352;2023-12-28T03:10:11;11.13;;;5.50;;
28760;SDS011;15917;50.014;8.352;2023-12-28T03:12:37;10.95;;;5.63;;
28760;SDS011;15917;50.014;8.352;2023-12-28T03:15:03;8.75;;;4.75;;
28760;SDS011;15917;50.014;8.352;2023-12-28T03:17:30;14.98;;;4.75;;
28760;SDS011;15917;50.014;8.352;2023-12-28T03:19:56;12.82;;;4.70;;
28760;SDS011;15917;50.014;8.352;2023-12-28T03:22:23;10.13;;;3.78;;
28760;SDS011;15917;50.014;8.352;2023-12-28T03:24:49;11.07;;;4.68;;
28760;SDS011;15917;50.014;8.352;2023-12-28T03:27:14;8.85;;;4.38;;
28760;SDS011;15917;50.014;8.352;2023-12-28T03:29:40;7.47;;;4.70;;
28760;SDS011;15917;50.014;8.352;2023-12-28T03:32:09;10.52;;;4.45;;
28760;SDS011;15917;50.014;8.352;2023-12-28T03:34:34;10.00;;;4.68;;
28760;SDS011;15917;50.014;8.352;2023-12-28T03:37:00;8.93;;;4.07;;
28760;SDS011;15917;50.014;8.352;2023-12-28T03:39:26;10.32;;;4.32;;
28760;SDS011;15917;50.014;8.352;2023-12-28T03:41:51;13.30;;;5.05;;
28760;SDS011;15917;50.014;8.352;2023-12-28T03:44:20;8.75;;;4.40;;
28760;SDS011;15917;50.014;8.352;2023-12-28T03:46:47;10.05;;;4.07;;
28760;SDS011;15917;50.014;8.352;2023-12-28T03:49:17;8.02;;;3.83;;
28760;SDS011;15917;50.014;8.352;2023-12-28T03:51:43;8.45;;;3.72;;
28760;SDS011;15917;50.014;8.352;2023-12-28T03:54:09;10.60;;;3.90;;
28760;SDS011;15917;50.014;8.352;2023-12-28T03:56:35;5.60;;;3.20;;
28760;SDS011;15917;50.014;8.352;2023-12-28T03:59:00;7.93;;;3.83;;
28760;SDS011;15917;50.014;8.352;2023-12-28T04:01:26;5.82;;;3.03;;
28760;SDS011;15917;50.014;8.352;2023-12-28T04:03:52;9.18;;;3.00;;
28760;SDS011;15917;50.014;8.352;2023-12-28T04:06:17;6.20;;;3.30;;
28760;SDS011;15917;50.014;8.352;2023-12-28T04:08:43;7.65;;;3.65;;
28760;SDS011;15917;50.014;8.352;2023-12-28T04:11:09;9.38;;;3.72;;
28760;SDS011;15917;50.014;8.352;2023-12-28T04:13:35;7.32;;;3.53;;
28760;SDS011;15917;50.014;8.352;2023-12-28T04:16:01;12.20;;;4.10;;
28760;SDS011;15917;50.014;8.352;2023-12-28T04:18:27;7.78;;;3.63;;
28760;SDS011;15917;50.014;8.352;2023-12-28T04:20:53;8.45;;;4.85;;
28760;SDS011;15917;50.014;8.352;2023-12-28T04:23:19;8.13;;;3.70;;
28760;SDS011;15917;50.014;8.352;2023-12-28T04:25:45;5.57;;;3.38;;
28760;SDS011;15917;50.014;8.352;2023-12-28T04:28:11;8.30;;;3.55;;
28760;SDS011;15917;50.014;8.352;2023-12-28T04:30:36;6.18;;;3.25;;
28760;SDS011;15917;50.014;8.352;2023-12-28T04:33:02;6.32;;;3.35;;
28760;SDS011;15917;50.014;8.352;2023-12-28T04:35:29;6.13;;;3.42;;
28760;SDS011;15917;50.014;8.352;2023-12-28T04:37:54;5.97;;;3.03;;
28760;SDS011;15917;50.014;8.352;2023-12-28T04:40:20;5.53;;;2.97;;
28760;SDS011;15917;50.014;8.352;2023-12-28T04:42:46;5.85;;;3.15;;
28760;SDS011;15917;50.014;8.352;2023-12-28T04:45:12;7.65;;;3.38;;
28760;SDS011;15917;50.014;8.352;2023-12-28T04:47:38;9.43;;;3.15;;
28760;SDS011;15917;50.014;8.352;2023-12-28T04:50:04;10.00;;;3.15;;
28760;SDS011;15917;50.014;8.352;2023-12-28T04:52:30;6.20;;;2.75;;
28760;SDS011;15917;50.014;8.352;2023-12-28T04:54:57;8.30;;;3.00;;
28760;SDS011;15917;50.014;8.352;2023-12-28T04:57:23;6.85;;;3.17;;
28760;SDS011;15917;50.014;8.352;2023-12-28T04:59:53;9.43;;;2.83;;
28760;SDS011;15917;50.014;8.352;2023-12-28T05:02:18;4.22;;;2.53;;
28760;SDS011;15917;50.014;8.352;2023-12-28T05:04:44;7.07;;;3.42;;
28760;SDS011;15917;50.014;8.352;2023-12-28T05:07:11;6.32;;;3.17;;
28760;SDS011;15917;50.014;8.352;2023-12-28T05:09:37;5.85;;;3.53;;
28760;SDS011;15917;50.014;8.352;2023-12-28T05:12:02;7.10;;;3.17;;
28760;SDS011;15917;50.014;8.352;2023-12-28T05:14:29;6.28;;;3.13;;
28760;SDS011;15917;50.014;8.352;2023-12-28T05:16:54;7.00;;;3.17;;
28760;SDS011;15917;50.014;8.352;2023-12-28T05:19:20;6.80;;;3.13;;
28760;SDS011;15917;50.014;8.352;2023-12-28T05:21:46;5.75;;;3.20;;
28760;SDS011;15917;50.014;8.352;2023-12-28T05:24:12;9.15;;;3.70;;
28760;SDS011;15917;50.014;8.352;2023-12-28T05:26:38;8.15;;;3.65;;
28760;SDS011;15917;50.014;8.352;2023-12-28T05:29:03;7.60;;;3.83;;
28760;SDS011;15917;50.014;8.352;2023-12-28T05:31:29;6.63;;;3.80;;
28760;SDS011;15917;50.014;8.352;2023-12-28T05:33:54;6.10;;;3.38;;
28760;SDS011;15917;50.014;8.352;2023-12-28T05:36:20;11.23;;;3.63;;
28760;SDS011;15917;50.014;8.352;2023-12-28T05:38:45;8.52;;;3.97;;
28760;SDS011;15917;50.014;8.352;2023-12-28T05:41:11;9.52;;;3.88;;
28760;SDS011;15917;50.014;8.352;2023-12-28T05:43:37;13.02;;;3.85;;
28760;SDS011;15917;50.014;8.352;2023-12-28T05:46:03;8.40;;;3.58;;
28760;SDS011;15917;50.014;8.352;2023-12-28T05:48:29;7.43;;;3.72;;
28760;SDS011;15917;50.014;8.352;2023-12-28T05:50:55;7.60;;;4.00;;
28760;SDS011;15917;50.014;8.352;2023-12-28T05:53:23;7.53;;;3.20;;
28760;SDS011;15917;50.014;8.352;2023-12-28T05:55:49;8.38;;;3.63;;
28760;SDS011;15917;50.014;8.352;2023-12-28T05:58:14;7.40;;;3.17;;
28760;SDS011;15917;50.014;8.352;2023-12-28T06:00:40;5.63;;;3.35;;
28760;SDS011;15917;50.014;8.352;2023-12-28T06:03:06;8.13;;;3.55;;
28760;SDS011;15917;50.014;8.352;2023-12-28T06:05:31;6.75;;;3.35;;
28760;SDS011;15917;50.014;8.352;2023-12-28T06:07:57;10.85;;;4.30;;
28760;SDS011;15917;50.014;8.352;2023-12-28T06:10:23;6.93;;;3.95;;
28760;SDS011;15917;50.014;8.352;2023-12-28T06:12:49;6.35;;;3.50;;
28760;SDS011;15917;50.014;8.352;2023-12-28T06:15:15;12.40;;;5.28;;
28760;SDS011;15917;50.014;8.352;2023-12-28T06:17:42;10.35;;;4.43;;
28760;SDS011;15917;50.014;8.352;2023-12-28T06:20:08;6.15;;;3.25;;
28760;SDS011;15917;50.014;8.352;2023-12-28T06:22:36;7.78;;;3.17;;
28760;SDS011;15917;50.014;8.352;2023-12-28T06:25:02;6.03;;;2.58;;
28760;SDS011;15917;50.014;8.352;2023-12-28T06:27:28;11.10;;;3.50;;
28760;SDS011;15917;50.014;8.352;2023-12-28T06:29:54;4.25;;;2.88;;
28760;SDS011;15917;50.014;8.352;2023-12-28T06:32:20;5.03;;;2.40;;
28760;SDS011;15917;50.014;8.352;2023-12-28T06:34:46;4.18;;;2.45;;
28760;SDS011;15917;50.014;8.352;2023-12-28T06:37:12;3.42;;;2.20;;
28760;SDS011;15917;50.014;8.352;2023-12-28T06:39:38;5.80;;;2.60;;
28760;SDS011;15917;50.014;8.352;2023-12-28T06:42:04;9.02;;;4.10;;
28760;SDS011;15917;50.014;8.352;2023-12-28T06:44:30;6.65;;;2.10;;
28760;SDS011;15917;50.014;8.352;2023-12-28T06:46:55;5.68;;;2.70;;
28760;SDS011;15917;50.014;8.352;2023-12-28T06:49:21;4.82;;;2.50;;
28760;SDS011;15917;50.014;8.352;2023-12-28T06:51:46;4.43;;;2.65;;
28760;SDS011;15917;50.014;8.352;2023-12-28T06:54:13;10.10;;;2.92;;
28760;SDS011;15917;50.014;8.352;2023-12-28T06:56:40;7.55;;;2.60;;
28760;SDS011;15917;50.014;8.352;2023-12-28T06:59:05;7.57;;;3.08;;
28760;SDS011;15917;50.014;8.352;2023-12-28T07:01:31;6.85;;;2.88;;
28760;SDS011;15917;50.014;8.352;2023-12-28T07:03:56;5.18;;;3.00;;
28760;SDS011;15917;50.014;8.352;2023-12-28T07:06:24;6.00;;;2.92;;
28760;SDS011;15917;50.014;8.352;2023-12-28T07:08:50;8.05;;;3.10;;
28760;SDS011;15917;50.014;8.352;2023-12-28T07:11:16;5.90;;;2.78;;
28760;SDS011;15917;50.014;8.352;2023-12-28T07:13:41;9.20;;;2.70;;
28760;SDS011;15917;50.014;8.352;2023-12-28T07:16:07;5.15;;;2.53;;
28760;SDS011;15917;50.014;8.352;2023-12-28T07:18:32;7.35;;;2.80;;
28760;SDS011;15917;50.014;8.352;2023-12-28T07:20:58;7.28;;;2.88;;
28760;SDS011;15917;50.014;8.352;2023-12-28T07:23:25;6.65;;;2.97;;
28760;SDS011;15917;50.014;8.352;2023-12-28T07:25:51;6.30;;;2.65;;
28760;SDS011;15917;50.014;8.352;2023-12-28T07:28:16;4.95;;;2.67;;
28760;SDS011;15917;50.014;8.352;2023-12-28T07:30:42;7.70;;;2.75;;
28760;SDS011;15917;50.014;8.352;2023-12-28T07:33:07;6.45;;;2.53;;
28760;SDS011;15917;50.014;8.352;2023-12-28T07:35:34;6.50;;;3.13;;
28760;SDS011;15917;50.014;8.352;2023-12-28T07:37:59;4.40;;;2.35;;
28760;SDS011;15917;50.014;8.352;2023-12-28T07:40:25;5.35;;;2.30;;
28760;SDS011;15917;50.014;8.352;2023-12-28T07:42:51;5.15;;;2.75;;
28760;SDS011;15917;50.014;8.352;2023-12-28T07:45:16;5.70;;;2.83;;
28760;SDS011;15917;50.014;8.352;2023-12-28T07:47:48;5.80;;;2.50;;
28760;SDS011;15917;50.014;8.352;2023-12-28T07:50:14;6.65;;;2.90;;
28760;SDS011;15917;50.014;8.352;2023-12-28T07:52:41;6.32;;;2.70;;
28760;SDS011;15917;50.014;8.352;2023-12-28T07:55:07;3.75;;;2.22;;
28760;SDS011;15917;50.014;8.352;2023-12-28T07:57:34;5.18;;;2.70;;
28760;SDS011;15917;50.014;8.352;2023-12-28T08:00:00;11.23;;;2.65;;
28760;SDS011;15917;50.014;8.352;2023-12-28T08:02:29;4.72;;;2.42;;
28760;SDS011;15917;50.014;8.352;2023-12-28T08:04:54;5.80;;;2.58;;
28760;SDS011;15917;50.014;8.352;2023-12-28T08:07:20;3.92;;;2.10;;
28760;SDS011;15917;50.014;8.352;2023-12-28T08:09:46;5.82;;;2.90;;
28760;SDS011;15917;50.014;8.352;2023-12-28T08:12:11;6.28;;;2.80;;
28760;SDS011;15917;50.014;8.352;2023-12-28T08:14:37;5.18;;;3.03;;
28760;SDS011;15917;50.014;8.352;2023-12-28T08:17:02;6.68;;;2.65;;
28760;SDS011;15917;50.014;8.352;2023-12-28T08:19:28;11.73;;;3.15;;
28760;SDS011;15917;50.014;8.352;2023-12-28T08:21:54;10.18;;;2.92;;
28760;SDS011;15917;50.014;8.352;2023-12-28T08:24:19;7.25;;;3.13;;
28760;SDS011;15917;50.014;8.352;2023-12-28T08:26:46;4.40;;;2.45;;
28760;SDS011;15917;50.014;8.352;2023-12-28T08:29:11;9.00;;;2.97;;
28760;SDS011;15917;50.014;8.352;2023-12-28T08:31:38;8.80;;;2.85;;
28760;SDS011;15917;50.014;8.352;2023-12-28T08:34:03;12.95;;;3.50;;
28760;SDS011;15917;50.014;8.352;2023-12-28T08:36:29;7.00;;;3.08;;
28760;SDS011;15917;50.014;8.352;2023-12-28T08:38:55;6.18;;;2.70;;
28760;SDS011;15917;50.014;8.352;2023-12-28T08:41:21;6.45;;;3.13;;
28760;SDS011;15917;50.014;8.352;2023-12-28T08:43:49;7.53;;;2.70;;
28760;SDS011;15917;50.014;8.352;2023-12-28T08:46:15;4.57;;;2.97;;
28760;SDS011;15917;50.014;8.352;2023-12-28T08:48:41;10.88;;;3.38;;
28760;SDS011;15917;50.014;8.352;2023-12-28T08:51:07;9.73;;;3.50;;
28760;SDS011;15917;50.014;8.352;2023-12-28T08:53:34;6.82;;;3.78;;
28760;SDS011;15917;50.014;8.352;2023-12-28T08:56:00;8.02;;;2.95;;
28760;SDS011;15917;50.014;8.352;2023-12-28T08:58:25;4.88;;;3.05;;
28760;SDS011;15917;50.014;8.352;2023-12-28T09:00:51;5.53;;;3.28;;
28760;SDS011;15917;50.014;8.352;2023-12-28T09:03:17;10.57;;;3.03;;
28760;SDS011;15917;50.014;8.352;2023-12-28T09:05:42;7.47;;;3.50;;
28760;SDS011;15917;50.014;8.352;2023-12-28T09:08:08;9.57;;;3.80;;
28760;SDS011;15917;50.014;8.352;2023-12-28T09:10:34;9.95;;;3.40;;
28760;SDS011;15917;50.014;8.352;2023-12-28T09:12:59;6.32;;;3.08;;
28760;SDS011;15917;50.014;8.352;2023-12-28T09:15:25;10.75;;;3.85;;
28760;SDS011;15917;50.014;8.352;2023-12-28T09:17:50;9.50;;;3.15;;
28760;SDS011;15917;50.014;8.352;2023-12-28T09:20:17;13.32;;;3.40;;
28760;SDS011;15917;50.014;8.352;2023-12-28T09:22:43;17.02;;;3.75;;
28760;SDS011;15917;50.014;8.352;2023-12-28T09:25:09;8.43;;;3.30;;
28760;SDS011;15917;50.014;8.352;2023-12-28T09:27:35;7.00;;;2.47;;
28760;SDS011;15917;50.014;8.352;2023-12-28T09:30:01;12.43;;;3.00;;
28760;SDS011;15917;50.014;8.352;2023-12-28T09:32:26;11.43;;;2.40;;
28760;SDS011;15917;50.014;8.352;2023-12-28T09:34:52;9.18;;;2.88;;
28760;SDS011;15917;50.014;8.352;2023-12-28T09:37:18;11.05;;;2.92;;
28760;SDS011;15917;50.014;8.352;2023-12-28T09:39:43;7.63;;;2.90;;
28760;SDS011;15917;50.014;8.352;2023-12-28T09:42:13;6.55;;;2.45;;
28760;SDS011;15917;50.014;8.352;2023-12-28T09:44:44;6.63;;;2.53;;
28760;SDS011;15917;50.014;8.352;2023-12-28T09:47:10;6.65;;;2.55;;
28760;SDS011;15917;50.014;8.352;2023-12-28T09:52:05;4.47;;;2.17;;
28760;SDS011;15917;50.014;8.352;2023-12-28T09:54:31;9.85;;;2.70;;
28760;SDS011;15917;50.014;8.352;2023-12-28T09:56:57;7.65;;;1.98;;
28760;SDS011;15917;50.014;8.352;2023-12-28T09:59:23;7.28;;;2.50;;
28760;SDS011;15917;50.014;8.352;2023-12-28T10:01:49;6.22;;;2.15;;
28760;SDS011;15917;50.014;8.352;2023-12-28T10:04:15;8.32;;;2.58;;
28760;SDS011;15917;50.014;8.352;2023-12-28T10:06:41;12.20;;;2.63;;
28760;SDS011;15917;50.014;8.352;2023-12-28T10:09:07;8.32;;;2.47;;
28760;SDS011;15917;50.014;8.352;2023-12-28T10:11:33;8.65;;;2.70;;
28760;SDS011;15917;50.014;8.352;2023-12-28T10:13:59;8.80;;;3.33;;
28760;SDS011;15917;50.014;8.352;2023-12-28T10:16:24;9.68;;;3.05;;
28760;SDS011;15917;50.014;8.352;2023-12-28T10:18:50;6.57;;;2.53;;
28760;SDS011;15917;50.014;8.352;2023-12-28T10:21:16;6.43;;;2.75;;
28760;SDS011;15917;50.014;8.352;2023-12-28T10:23:41;5.70;;;2.80;;
28760;SDS011;15917;50.014;8.352;2023-12-28T10:26:07;4.30;;;2.05;;
28760;SDS011;15917;50.014;8.352;2023-12-28T10:28:36;8.30;;;2.30;;
28760;SDS011;15917;50.014;8.352;2023-12-28T10:31:04;6.00;;;2.50;;
28760;SDS011;15917;50.014;8.352;2023-12-28T10:33:34;4.20;;;2.47;;
28760;SDS011;15917;50.014;8.352;2023-12-28T10:36:00;7.82;;;2.17;;
28760;SDS011;15917;50.014;8.352;2023-12-28T10:38:35;10.85;;;2.35;;
28760;SDS011;15917;50.014;8.352;2023-12-28T10:41:03;5.88;;;2.30;;
28760;SDS011;15917;50.014;8.352;2023-12-28T10:43:35;8.32;;;1.80;;
28760;SDS011;15917;50.014;8.352;2023-12-28T10:46:12;4.03;;;1.80;;
28760;SDS011;15917;50.014;8.352;2023-12-28T10:48:52;5.22;;;1.98;;
28760;SDS011;15917;50.014;8.352;2023-12-28T10:51:24;3.83;;;2.10;;
28760;SDS011;15917;50.014;8.352;2023-12-28T10:54:09;5.90;;;3.08;;
28760;SDS011;15917;50.014;8.352;2023-12-28T10:56:55;4.82;;;2.00;;
28760;SDS011;15917;50.014;8.352;2023-12-28T10:59:35;8.15;;;2.30;;
28760;SDS011;15917;50.014;8.352;2023-12-28T11:02:02;14.20;;;3.03;;
28760;SDS011;15917;50.014;8.352;2023-12-28T11:04:37;9.82;;;2.50;;
28760;SDS011;15917;50.014;8.352;2023-12-28T11:07:09;7.25;;;2.15;;
28760;SDS011;15917;50.014;8.352;2023-12-28T11:09:37;8.05;;;2.45;;
28760;SDS011;15917;50.014;8.352;2023-12-28T11:12:07;3.95;;;1.77;;
28760;SDS011;15917;50.014;8.352;2023-12-28T11:14:38;9.27;;;2.00;;
28760;SDS011;15917;50.014;8.352;2023-12-28T11:17:05;6.05;;;2.72;;
28760;SDS011;15917;50.014;8.352;2023-12-28T11:19:31;7.57;;;2.28;;
28760;SDS011;15917;50.014;8.352;2023-12-28T11:21:58;9.18;;;2.30;;
28760;SDS011;15917;50.014;8.352;2023-12-28T11:24:26;3.00;;;1.67;;
28760;SDS011;15917;50.014;8.352;2023-12-28T11:26:53;3.58;;;1.90;;
28760;SDS011;15917;50.014;8.352;2023-12-28T11:29:20;5.35;;;1.60;;
28760;SDS011;15917;50.014;8.352;2023-12-28T11:31:56;6.20;;;2.15;;
28760;SDS011;15917;50.014;8.352;2023-12-28T11:34:29;6.63;;;1.80;;
28760;SDS011;15917;50.014;8.352;2023-12-28T11:37:07;10.57;;;1.92;;
28760;SDS011;15917;50.014;8.352;2023-12-28T11:39:37;8.57;;;1.75;;
28760;SDS011;15917;50.014;8.352;2023-12-28T11:42:08;7.25;;;2.30;;
28760;SDS011;15917;50.014;8.352;2023-12-28T11:47:10;5.20;;;1.75;;
28760;SDS011;15917;50.014;8.352;2023-12-28T11:49:37;3.78;;;1.40;;
28760;SDS011;15917;50.014;8.352;2023-12-28T11:52:06;7.38;;;1.70;;
28760;SDS011;15917;50.014;8.352;2023-12-28T11:54:33;6.90;;;1.83;;
28760;SDS011;15917;50.014;8.352;2023-12-28T11:56:58;9.95;;;1.80;;
28760;SDS011;15917;50.014;8.352;2023-12-28T11:59:24;7.15;;;1.65;;
28760;SDS011;15917;50.014;8.352;2023-12-28T12:01:50;4.63;;;1.60;;
28760;SDS011;15917;50.014;8.352;2023-12-28T12:04:19;4.55;;;1.70;;
28760;SDS011;15917;50.014;8.352;2023-12-28T12:06:45;2.67;;;1.45;;
28760;SDS011;15917;50.014;8.352;2023-12-28T12:09:12;6.15;;;1.90;;
28760;SDS011;15917;50.014;8.352;2023-12-28T12:11:40;4.72;;;1.48;;
28760;SDS011;15917;50.014;8.352;2023-12-28T12:14:11;9.25;;;1.63;;
28760;SDS011;15917;50.014;8.352;2023-12-28T12:16:37;5.13;;;1.60;;
28760;SDS011;15917;50.014;8.352;2023-12-28T12:19:06;9.50;;;2.15;;
28760;SDS011;15917;50.014;8.352;2023-12-28T12:21:33;2.72;;;1.48;;
28760;SDS011;15917;50.014;8.352;2023-12-28T12:23:59;7.72;;;3.25;;
28760;SDS011;15917;50.014;8.352;2023-12-28T12:26:28;9.93;;;1.65;;
28760;SDS011;15917;50.014;8.352;2023-12-28T12:28:55;7.83;;;2.10;;
28760;SDS011;15917;50.014;8.352;2023-12-28T12:31:21;9.55;;;1.70;;
28760;SDS011;15917;50.014;8.352;2023-12-28T12:33:47;10.93;;;2.60;;
28760;SDS011;15917;50.014;8.352;2023-12-28T12:36:13;8.98;;;1.95;;
28760;SDS011;15917;50.014;8.352;2023-12-28T12:38:39;5.10;;;1.90;;
28760;SDS011;15917;50.014;8.352;2023-12-28T12:41:05;4.95;;;2.00;;
28760;SDS011;15917;50.014;8.352;2023-12-28T12:43:30;3.90;;;1.85;;
28760;SDS011;15917;50.014;8.352;2023-12-28T12:45:56;6.85;;;2.03;;
28760;SDS011;15917;50.014;8.352;2023-12-28T12:48:22;8.57;;;2.40;;
28760;SDS011;15917;50.014;8.352;2023-12-28T12:50:47;5.85;;;2.42;;
28760;SDS011;15917;50.014;8.352;2023-12-28T12:53:13;5.65;;;2.08;;
28760;SDS011;15917;50.014;8.352;2023-12-28T12:55:39;7.80;;;1.80;;
28760;SDS011;15917;50.014;8.352;2023-12-28T12:58:05;6.18;;;1.73;;
28760;SDS011;15917;50.014;8.352;2023-12-28T13:00:30;5.05;;;1.80;;
28760;SDS011;15917;50.014;8.352;2023-12-28T13:03:00;5.13;;;1.92;;
28760;SDS011;15917;50.014;8.352;2023-12-28T13:05:26;5.45;;;2.00;;
28760;SDS011;15917;50.014;8.352;2023-12-28T13:07:51;4.65;;;2.00;;
28760;SDS011;15917;50.014;8.352;2023-12-28T13:10:17;6.93;;;1.90;;
28760;SDS011;15917;50.014;8.352;2023-12-28T13:12:43;9.23;;;2.15;;
28760;SDS011;15917;50.014;8.352;2023-12-28T13:15:09;11.50;;;1.83;;
28760;SDS011;15917;50.014;8.352;2023-12-28T13:17:38;5.70;;;1.90;;
28760;SDS011;15917;50.014;8.352;2023-12-28T13:20:04;4.70;;;2.00;;
28760;SDS011;15917;50.014;8.352;2023-12-28T13:22:31;4.53;;;1.85;;
28760;SDS011;15917;50.014;8.352;2023-12-28T13:24:59;6.55;;;2.30;;
28760;SDS011;15917;50.014;8.352;2023-12-28T13:27:24;5.57;;;2.00;;
28760;SDS011;15917;50.014;8.352;2023-12-28T13:29:50;9.68;;;2.40;;
28760;SDS011;15917;50.014;8.352;2023-12-28T13:32:16;8.13;;;2.63;;
28760;SDS011;15917;50.014;8.352;2023-12-28T13:34:41;3.85;;;2.08;;
28760;SDS011;15917;50.014;8.352;2023-12-28T13:37:07;8.45;;;2.20;;
28760;SDS011;15917;50.014;8.352;2023-12-28T13:39:32;6.00;;;2.13;;
28760;SDS011;15917;50.014;8.352;2023-12-28T13:42:04;4.63;;;1.80;;
28760;SDS011;15917;50.014;8.352;2023-12-28T13:44:32;11.52;;;2.25;;
28760;SDS011;15917;50.014;8.352;2023-12-28T13:47:04;2.75;;;1.40;;
28760;SDS011;15917;50.014;8.352;2023-12-28T13:49:33;8.70;;;2.03;;
28760;SDS011;15917;50.014;8.352;2023-12-28T13:51:58;3.13;;;1.40;;
28760;SDS011;15917;50.014;8.352;2023-12-28T13:54:24;5.80;;;2.22;;
28760;SDS011;15917;50.014;8.352;2023-12-28T13:56:50;6.10;;;1.50;;
28760;SDS011;15917;50.014;8.352;2023-12-28T13:59:21;3.78;;;1.33;;
28760;SDS011;15917;50.014;8.352;2023-12-28T14:01:47;6.50;;;1.50;;
28760;SDS011;15917;50.014;8.352;2023-12-28T14:04:13;2.90;;;1.15;;
28760;SDS011;15917;50.014;8.352;2023-12-28T14:06:38;3.92;;;0.90;;
28760;SDS011;15917;50.014;8.352;2023-12-28T14:09:04;4.25;;;1.13;;
28760;SDS011;15917;50.014;8.352;2023-12-28T14:11:29;1.02;;;0.55;;
28760;SDS011;15917;50.014;8.352;2023-12-28T14:13:55;3.85;;;0.82;;
28760;SDS011;15917;50.014;8.352;2023-12-28T14:16:21;1.63;;;0.88;;
28760;SDS011;15917;50.014;8.352;2023-12-28T14:18:46;1.88;;;0.50;;
28760;SDS011;15917;50.014;8.352;2023-12-28T14:21:13;0.93;;;0.70;;
28760;SDS011;15917;50.014;8.352;2023-12-28T14:23:40;2.03;;;0.80;;
28760;SDS011;15917;50.014;8.352;2023-12-28T14:26:11;1.15;;;0.60;;
28760;SDS011;15917;50.014;8.352;2023-12-28T14:28:39;3.10;;;1.02;;
28760;SDS011;15917;50.014;8.352;2023-12-28T14:31:04;1.10;;;0.80;;
28760;SDS011;15917;50.014;8.352;2023-12-28T14:33:30;1.40;;;0.80;;
28760;SDS011;15917;50.014;8.352;2023-12-28T14:35:57;1.30;;;0.68;;
28760;SDS011;15917;50.014;8.352;2023-12-28T14:38:23;2.38;;;1.00;;
28760;SDS011;15917;50.014;8.352;2023-12-28T14:40:48;1.00;;;0.90;;
28760;SDS011;15917;50.014;8.352;2023-12-28T14:43:16;3.25;;;1.00;;
28760;SDS011;15917;50.014;8.352;2023-12-28T14:45:42;1.88;;;0.80;;
28760;SDS011;15917;50.014;8.352;2023-12-28T14:48:08;0.90;;;0.70;;